sensor_id;sensor_type;location;lat;lon;timestamp;pressure;altitude;pressure_sealevel;temperature;humidity
61474;BME280;53694;49.784;30.150;2023-01-30T00:00:51;99696.56;;;-1.90;66.85
61474;BME280;53694;49.784;30.150;2023-01-30T00:01:53;99694.96;;;-1.91;66.94
61474;BME280;53694;49.784;30.150;2023-01-30T00:02:54;99685.80;;;-1.90;66.95
61474;BME280;53694;49.784;30.150;2023-01-30T00:03:56;99681.22;;;-1.89;66.96
61474;BME280;53694;49.784;30.150;2023-01-30T00:04:58;99675.03;;;-1.90;67.10
61474;BME280;53694;49.784;30.150;2023-01-30T02:06:51;99553.50;;;-2.57;67.76
61474;BME280;53694;49.784;30.150;2023-01-30T02:08:17;99561.33;;;-2.65;67.56
61474;BME280;53694;49.784;30.150;2023-01-30T02:09:19;99556.50;;;-2.63;67.35
61474;BME280;53694;49.784;30.150;2023-01-30T02:10:31;99561.30;;;-2.60;67.22
61474;BME280;53694;49.784;30.150;2023-01-30T02:11:46;99563.73;;;-2.59;67.31
61474;BME280;53694;49.784;30.150;2023-01-30T02:12:50;99555.90;;;-2.55;67.43
61474;BME280;53694;49.784;30.150;2023-01-30T02:13:52;99559.93;;;-2.53;67.47
61474;BME280;53694;49.784;30.150;2023-01-30T02:14:55;99559.09;;;-2.48;67.42
61474;BME280;53694;49.784;30.150;2023-01-30T02:16:00;99558.81;;;-2.46;67.48
61474;BME280;53694;49.784;30.150;2023-01-30T02:17:02;99560.95;;;-2.43;67.52
61474;BME280;53694;49.784;30.150;2023-01-30T02:18:03;99566.87;;;-2.41;67.52
61474;BME280;53694;49.784;30.150;2023-01-30T02:19:09;99566.30;;;-2.38;67.51
61474;BME280;53694;49.784;30.150;2023-01-30T02:21:49;99555.28;;;-2.37;67.47
61474;BME280;53694;49.784;30.150;2023-01-30T02:27:14;99558.27;;;-2.43;67.01
61474;BME280;53694;49.784;30.150;2023-01-30T02:31:35;99555.86;;;-2.45;67.29
61474;BME280;53694;49.784;30.150;2023-01-30T02:32:46;99566.63;;;-2.45;67.10
61474;BME280;53694;49.784;30.150;2023-01-30T02:33:59;99559.64;;;-2.46;67.05
61474;BME280;53694;49.784;30.150;2023-01-30T02:35:14;99552.37;;;-2.45;67.12
61474;BME280;53694;49.784;30.150;2023-01-30T02:39:30;99552.63;;;-2.42;67.29
61474;BME280;53694;49.784;30.150;2023-01-30T02:42:07;99551.80;;;-2.42;67.39
61474;BME280;53694;49.784;30.150;2023-01-30T02:43:19;99548.31;;;-2.43;67.43
61474;BME280;53694;49.784;30.150;2023-01-30T02:44:32;99549.11;;;-2.42;67.50
61474;BME280;53694;49.784;30.150;2023-01-30T02:45:41;99550.20;;;-2.43;67.15
61474;BME280;53694;49.784;30.150;2023-01-30T02:47:57;99543.22;;;-2.44;67.23
61474;BME280;53694;49.784;30.150;2023-01-30T02:49:08;99544.82;;;-2.43;67.30
61474;BME280;53694;49.784;30.150;2023-01-30T02:50:18;99542.93;;;-2.43;67.13
61474;BME280;53694;49.784;30.150;2023-01-30T02:51:21;99542.93;;;-2.43;67.21
61474;BME280;53694;49.784;30.150;2023-01-30T02:52:23;99534.61;;;-2.41;67.22
61474;BME280;53694;49.784;30.150;2023-01-30T02:53:34;99530.02;;;-2.41;67.21
61474;BME280;53694;49.784;30.150;2023-01-30T02:54:33;99532.42;;;-2.39;67.11
61474;BME280;53694;49.784;30.150;2023-01-30T02:55:35;99530.53;;;-2.39;67.07
61474;BME280;53694;49.784;30.150;2023-01-30T02:56:50;99528.64;;;-2.38;67.23
61474;BME280;53694;49.784;30.150;2023-01-30T02:57:52;99529.19;;;-2.36;67.21
61474;BME280;53694;49.784;30.150;2023-01-30T02:59:01;99531.33;;;-2.33;67.12
61474;BME280;53694;49.784;30.150;2023-01-30T03:00:04;99527.55;;;-2.32;66.85
61474;BME280;53694;49.784;30.150;2023-01-30T03:01:20;99516.80;;;-2.32;66.94
61474;BME280;53694;49.784;30.150;2023-01-30T03:06:36;99512.77;;;-2.35;67.28
61474;BME280;53694;49.784;30.150;2023-01-30T03:07:54;99517.88;;;-2.33;67.15
61474;BME280;53694;49.784;30.150;2023-01-30T03:10:29;99510.61;;;-2.33;67.39
61474;BME280;53694;49.784;30.150;2023-01-30T03:11:51;99514.91;;;-2.32;67.25
61474;BME280;53694;49.784;30.150;2023-01-30T03:14:06;99509.23;;;-2.30;67.01
61474;BME280;53694;49.784;30.150;2023-01-30T03:15:12;99507.34;;;-2.30;67.10
61474;BME280;53694;49.784;30.150;2023-01-30T03:16:17;99497.67;;;-2.31;67.12
61474;BME280;53694;49.784;30.150;2023-01-30T03:17:22;99499.27;;;-2.30;67.26
61474;BME280;53694;49.784;30.150;2023-01-30T03:18:24;99499.81;;;-2.28;67.29
61474;BME280;53694;49.784;30.150;2023-01-30T03:19:27;99492.83;;;-2.29;67.34
61474;BME280;53694;49.784;30.150;2023-01-30T03:20:30;99494.72;;;-2.29;67.27
61474;BME280;53694;49.784;30.150;2023-01-30T03:21:34;99500.91;;;-2.29;67.19
61474;BME280;53694;49.784;30.150;2023-01-30T03:22:37;99498.21;;;-2.29;67.17
61474;BME280;53694;49.784;30.150;2023-01-30T03:23:38;99497.67;;;-2.31;67.12
61474;BME280;53694;49.784;30.150;2023-01-30T03:24:40;99492.58;;;-2.32;67.14
61474;BME280;53694;49.784;30.150;2023-01-30T03:25:42;99492.84;;;-2.34;67.29
61474;BME280;53694;49.784;30.150;2023-01-30T03:27:04;99479.69;;;-2.35;67.22
61474;BME280;53694;49.784;30.150;2023-01-30T03:28:06;99489.35;;;-2.34;67.41
61474;BME280;53694;49.784;30.150;2023-01-30T03:29:08;99484.55;;;-2.37;67.32
61474;BME280;53694;49.784;30.150;2023-01-30T03:30:12;99482.66;;;-2.37;67.17
61474;BME280;53694;49.784;30.150;2023-01-30T03:31:13;99486.44;;;-2.38;67.23
61474;BME280;53694;49.784;30.150;2023-01-30T03:32:15;99482.41;;;-2.40;67.18
61474;BME280;53694;49.784;30.150;2023-01-30T03:33:16;99472.75;;;-2.41;67.27
61474;BME280;53694;49.784;30.150;2023-01-30T03:34:18;99476.50;;;-2.42;67.46
61474;BME280;53694;49.784;30.150;2023-01-30T03:35:19;99480.02;;;-2.42;67.51
61474;BME280;53694;49.784;30.150;2023-01-30T03:36:21;99478.13;;;-2.41;67.53
61474;BME280;53694;49.784;30.150;2023-01-30T03:37:23;99473.55;;;-2.41;67.52
61474;BME280;53694;49.784;30.150;2023-01-30T03:38:24;99476.23;;;-2.41;67.64
61474;BME280;53694;49.784;30.150;2023-01-30T03:39:26;99479.73;;;-2.40;67.75
61474;BME280;53694;49.784;30.150;2023-01-30T03:40:28;99471.37;;;-2.39;67.77
61474;BME280;53694;49.784;30.150;2023-01-30T03:41:30;99474.86;;;-2.38;67.82
61474;BME280;53694;49.784;30.150;2023-01-30T03:42:32;99468.67;;;-2.39;67.90
61474;BME280;53694;49.784;30.150;2023-01-30T03:43:33;99467.87;;;-2.39;67.94
61474;BME280;53694;49.784;30.150;2023-01-30T03:44:35;99465.19;;;-2.39;67.93
61474;BME280;53694;49.784;30.150;2023-01-30T03:45:36;99470.56;;;-2.39;67.99
61474;BME280;53694;49.784;30.150;2023-01-30T03:46:38;99467.87;;;-2.39;68.07
61474;BME280;53694;49.784;30.150;2023-01-30T03:47:39;99469.77;;;-2.40;68.15
61474;BME280;53694;49.784;30.150;2023-01-30T03:48:41;99465.19;;;-2.39;68.12
61474;BME280;53694;49.784;30.150;2023-01-30T03:49:42;99462.50;;;-2.39;68.14
61474;BME280;53694;49.784;30.150;2023-01-30T03:50:44;99463.30;;;-2.39;68.27
61474;BME280;53694;49.784;30.150;2023-01-30T03:51:46;99465.73;;;-2.37;68.30
61474;BME280;53694;49.784;30.150;2023-01-30T03:52:47;99467.33;;;-2.36;68.40
61474;BME280;53694;49.784;30.150;2023-01-30T03:53:49;99459.77;;;-2.34;68.45
61474;BME280;53694;49.784;30.150;2023-01-30T03:54:50;99461.39;;;-2.33;68.39
61474;BME280;53694;49.784;30.150;2023-01-30T03:55:52;99456.81;;;-2.33;68.58
61474;BME280;53694;49.784;30.150;2023-01-30T03:56:54;99461.91;;;-2.31;68.58
61474;BME280;53694;49.784;30.150;2023-01-30T03:57:56;99463.50;;;-2.30;68.65
61474;BME280;53694;49.784;30.150;2023-01-30T03:58:58;99457.06;;;-2.29;68.70
61474;BME280;53694;49.784;30.150;2023-01-30T03:59:59;99469.42;;;-2.28;68.70
61474;BME280;53694;49.784;30.150;2023-01-30T04:01:01;99456.77;;;-2.28;68.62
61474;BME280;53694;49.784;30.150;2023-01-30T04:02:02;99457.28;;;-2.26;68.57
61474;BME280;53694;49.784;30.150;2023-01-30T04:03:04;99461.60;;;-2.24;68.54
61474;BME280;53694;49.784;30.150;2023-01-30T04:04:06;99453.53;;;-2.24;68.62
61474;BME280;53694;49.784;30.150;2023-01-30T04:05:08;99454.33;;;-2.24;68.76
61474;BME280;53694;49.784;30.150;2023-01-30T04:06:10;99450.05;;;-2.25;68.70
61474;BME280;53694;49.784;30.150;2023-01-30T04:07:12;99460.27;;;-2.27;68.63
61474;BME280;53694;49.784;30.150;2023-01-30T04:08:13;99461.61;;;-2.30;68.70
61474;BME280;53694;49.784;30.150;2023-01-30T04:09:22;99445.77;;;-2.31;68.81
61474;BME280;53694;49.784;30.150;2023-01-30T04:10:25;99447.91;;;-2.28;68.99
61474;BME280;53694;49.784;30.150;2023-01-30T04:11:29;99447.10;;;-2.29;69.04
61474;BME280;53694;49.784;30.150;2023-01-30T04:12:46;99444.13;;;-2.27;69.22
61474;BME280;53694;49.784;30.150;2023-01-30T04:13:56;99450.30;;;-2.27;69.27
61474;BME280;53694;49.784;30.150;2023-01-30T04:14:57;99449.50;;;-2.27;69.10
61474;BME280;53694;49.784;30.150;2023-01-30T04:16:30;99451.39;;;-2.28;69.15
61474;BME280;53694;49.784;30.150;2023-01-30T04:17:36;99448.70;;;-2.28;69.26
61474;BME280;53694;49.784;30.150;2023-01-30T04:18:49;99445.21;;;-2.28;69.43
61474;BME280;53694;49.784;30.150;2023-01-30T04:19:51;99445.47;;;-2.30;69.50
61474;BME280;53694;49.784;30.150;2023-01-30T04:21:01;99450.86;;;-2.30;69.55
61474;BME280;53694;49.784;30.150;2023-01-30T04:22:02;99448.45;;;-2.31;69.63
61474;BME280;53694;49.784;30.150;2023-01-30T04:23:19;99440.67;;;-2.33;69.80
61474;BME280;53694;49.784;30.150;2023-01-30T04:24:21;99443.08;;;-2.31;69.95
61474;BME280;53694;49.784;30.150;2023-01-30T04:25:33;99441.19;;;-2.31;70.04
61474;BME280;53694;49.784;30.150;2023-01-30T04:26:37;99439.30;;;-2.30;70.03
61474;BME280;53694;49.784;30.150;2023-01-30T04:27:45;99436.61;;;-2.30;70.09
61474;BME280;53694;49.784;30.150;2023-01-30T04:28:46;99426.05;;;-2.21;70.11
61474;BME280;53694;49.784;30.150;2023-01-30T04:29:56;99433.89;;;-1.96;69.85
61474;BME280;53694;49.784;30.150;2023-01-30T04:30:58;99430.87;;;-1.60;69.11
61474;BME280;53694;49.784;30.150;2023-01-30T04:31:59;99427.84;;;-1.11;67.83
61474;BME280;53694;49.784;30.150;2023-01-30T04:33:01;99427.89;;;-0.73;66.43
61474;BME280;53694;49.784;30.150;2023-01-30T04:34:05;99431.63;;;-0.50;65.24
61474;BME280;53694;49.784;30.150;2023-01-30T04:35:08;99432.03;;;-0.43;64.34
61474;BME280;53694;49.784;30.150;2023-01-30T04:36:10;99433.13;;;-0.44;64.25
61474;BME280;53694;49.784;30.150;2023-01-30T04:37:12;99438.09;;;-0.51;64.32
61474;BME280;53694;49.784;30.150;2023-01-30T04:38:22;99435.55;;;-0.61;64.06
61474;BME280;53694;49.784;30.150;2023-01-30T04:39:25;99429.30;;;-0.76;64.23
61474;BME280;53694;49.784;30.150;2023-01-30T04:40:27;99438.38;;;-0.90;64.65
61474;BME280;53694;49.784;30.150;2023-01-30T04:41:37;99434.23;;;-1.02;64.93
61474;BME280;53694;49.784;30.150;2023-01-30T04:42:40;99428.45;;;-1.14;65.21
61474;BME280;53694;49.784;30.150;2023-01-30T04:43:46;99440.50;;;-1.30;65.65
61474;BME280;53694;49.784;30.150;2023-01-30T04:44:49;99439.59;;;-1.44;66.09
61474;BME280;53694;49.784;30.150;2023-01-30T04:46:01;99444.57;;;-1.57;66.59
61474;BME280;53694;49.784;30.150;2023-01-30T04:47:15;99441.41;;;-1.64;67.15
61474;BME280;53694;49.784;30.150;2023-01-30T04:48:18;99444.71;;;-1.72;67.65
61474;BME280;53694;49.784;30.150;2023-01-30T04:49:24;99435.66;;;-1.81;67.90
61474;BME280;53694;49.784;30.150;2023-01-30T04:50:38;99441.89;;;-1.86;68.24
61474;BME280;53694;49.784;30.150;2023-01-30T04:51:50;99446.50;;;-1.91;68.60
61474;BME280;53694;49.784;30.150;2023-01-30T04:52:54;99439.28;;;-1.96;69.00
61474;BME280;53694;49.784;30.150;2023-01-30T04:54:17;99442.81;;;-2.01;69.29
61474;BME280;53694;49.784;30.150;2023-01-30T04:55:26;99445.27;;;-2.04;69.56
61474;BME280;53694;49.784;30.150;2023-01-30T04:56:27;99447.50;;;-2.11;69.77
61474;BME280;53694;49.784;30.150;2023-01-30T04:57:34;99442.97;;;-2.16;70.03
61474;BME280;53694;49.784;30.150;2023-01-30T04:58:35;99439.23;;;-2.20;70.32
61474;BME280;53694;49.784;30.150;2023-01-30T04:59:37;99439.78;;;-2.23;70.62
61474;BME280;53694;49.784;30.150;2023-01-30T05:01:10;99438.65;;;-2.17;70.88
61474;BME280;53694;49.784;30.150;2023-01-30T05:02:10;99434.70;;;-1.95;70.62
61474;BME280;53694;49.784;30.150;2023-01-30T05:03:12;99438.03;;;-1.51;69.61
61474;BME280;53694;49.784;30.150;2023-01-30T05:04:31;99433.40;;;-1.02;68.34
61474;BME280;53694;49.784;30.150;2023-01-30T05:05:47;99428.48;;;-0.57;67.34
61474;BME280;53694;49.784;30.150;2023-01-30T05:06:56;99441.54;;;-0.13;65.46
61474;BME280;53694;49.784;30.150;2023-01-30T05:08:04;99441.82;;;0.05;64.58
61474;BME280;53694;49.784;30.150;2023-01-30T05:09:22;99442.41;;;0.02;63.76
61474;BME280;53694;49.784;30.150;2023-01-30T05:11:46;99444.50;;;-0.28;63.93
61474;BME280;53694;49.784;30.150;2023-01-30T05:12:50;99446.48;;;-0.53;64.47
61474;BME280;53694;49.784;30.150;2023-01-30T05:14:26;99446.77;;;-0.73;64.89
61474;BME280;53694;49.784;30.150;2023-01-30T05:15:32;99443.27;;;-0.92;65.51
61474;BME280;53694;49.784;30.150;2023-01-30T05:16:44;99440.36;;;-1.20;66.54
61474;BME280;53694;49.784;30.150;2023-01-30T05:18:22;99444.85;;;-1.34;67.17
61474;BME280;53694;49.784;30.150;2023-01-30T05:19:23;99446.64;;;-1.48;67.86
61474;BME280;53694;49.784;30.150;2023-01-30T05:20:25;99437.67;;;-1.68;68.50
61474;BME280;53694;49.784;30.150;2023-01-30T05:21:27;99436.93;;;-1.73;69.00
61474;BME280;53694;49.784;30.150;2023-01-30T05:22:37;99437.55;;;-1.82;69.37
61474;BME280;53694;49.784;30.150;2023-01-30T05:23:45;99434.62;;;-1.85;69.73
61474;BME280;53694;49.784;30.150;2023-01-30T05:26:39;99442.02;;;-2.01;70.50
61474;BME280;53694;49.784;30.150;2023-01-30T05:27:46;99435.35;;;-2.09;70.96
61474;BME280;53694;49.784;30.150;2023-01-30T05:29:08;99431.25;;;-2.01;71.17
61474;BME280;53694;49.784;30.150;2023-01-30T05:30:34;99431.31;;;-1.77;70.97
61474;BME280;53694;49.784;30.150;2023-01-30T05:31:43;99423.77;;;-1.27;70.24
61474;BME280;53694;49.784;30.150;2023-01-30T05:33:15;99418.42;;;-0.70;68.19
61474;BME280;53694;49.784;30.150;2023-01-30T05:34:16;99422.33;;;-0.25;66.48
61474;BME280;53694;49.784;30.150;2023-01-30T05:35:18;99417.06;;;0.30;64.70
61474;BME280;53694;49.784;30.150;2023-01-30T05:36:26;99414.67;;;0.56;63.36
61474;BME280;53694;49.784;30.150;2023-01-30T05:37:28;99411.17;;;0.69;62.77
61474;BME280;53694;49.784;30.150;2023-01-30T05:38:29;99412.08;;;0.65;62.40
61474;BME280;53694;49.784;30.150;2023-01-30T05:39:50;99415.86;;;0.50;62.33
61474;BME280;53694;49.784;30.150;2023-01-30T05:41:08;99413.53;;;0.30;62.72
61474;BME280;53694;49.784;30.150;2023-01-30T05:42:09;99408.99;;;-0.03;63.24
61474;BME280;53694;49.784;30.150;2023-01-30T05:43:29;99400.80;;;-0.30;64.09
61474;BME280;53694;49.784;30.150;2023-01-30T05:44:41;99395.23;;;-0.53;64.74
61474;BME280;53694;49.784;30.150;2023-01-30T05:45:42;99395.91;;;-0.80;65.76
61474;BME280;53694;49.784;30.150;2023-01-30T05:46:44;99393.19;;;-0.98;66.46
61474;BME280;53694;49.784;30.150;2023-01-30T05:47:50;99396.38;;;-1.15;67.18
61474;BME280;53694;49.784;30.150;2023-01-30T05:48:57;99395.80;;;-1.31;67.87
61474;BME280;53694;49.784;30.150;2023-01-30T05:50:08;99389.48;;;-1.45;68.49
61474;BME280;53694;49.784;30.150;2023-01-30T05:51:25;99393.41;;;-1.57;69.08
61474;BME280;53694;49.784;30.150;2023-01-30T05:52:33;99397.78;;;-1.66;69.65
61474;BME280;53694;49.784;30.150;2023-01-30T05:53:40;99400.04;;;-1.73;70.21
61474;BME280;53694;49.784;30.150;2023-01-30T05:54:41;99387.20;;;-1.81;70.65
61474;BME280;53694;49.784;30.150;2023-01-30T05:55:43;99399.09;;;-1.87;71.14
61474;BME280;53694;49.784;30.150;2023-01-30T05:56:48;99406.61;;;-1.84;71.41
61474;BME280;53694;49.784;30.150;2023-01-30T05:58:03;99406.16;;;-1.67;71.37
61474;BME280;53694;49.784;30.150;2023-01-30T05:59:10;99395.27;;;-1.33;70.89
61474;BME280;53694;49.784;30.150;2023-01-30T06:00:29;99394.89;;;-0.84;69.57
61474;BME280;53694;49.784;30.150;2023-01-30T06:01:38;99399.87;;;-0.39;68.02
61474;BME280;53694;49.784;30.150;2023-01-30T06:02:48;99398.00;;;0.08;66.27
61474;BME280;53694;49.784;30.150;2023-01-30T06:03:56;99399.65;;;0.36;64.72
61474;BME280;53694;49.784;30.150;2023-01-30T06:04:58;99398.84;;;0.49;64.46
61474;BME280;53694;49.784;30.150;2023-01-30T06:06:01;99404.36;;;0.44;63.66
61474;BME280;53694;49.784;30.150;2023-01-30T06:07:06;99401.94;;;0.29;63.87
61474;BME280;53694;49.784;30.150;2023-01-30T06:08:18;99410.42;;;0.09;64.21
61474;BME280;53694;49.784;30.150;2023-01-30T06:09:19;99408.16;;;-0.17;64.72
61474;BME280;53694;49.784;30.150;2023-01-30T06:10:20;99403.67;;;-0.40;65.54
61474;BME280;53694;49.784;30.150;2023-01-30T06:11:38;99410.97;;;-0.60;66.15
61474;BME280;53694;49.784;30.150;2023-01-30T06:12:52;99405.10;;;-0.81;66.86
61474;BME280;53694;49.784;30.150;2023-01-30T06:13:53;99406.17;;;-1.01;67.75
61474;BME280;53694;49.784;30.150;2023-01-30T06:14:55;99397.25;;;-1.20;68.53
61474;BME280;53694;49.784;30.150;2023-01-30T06:16:12;99404.14;;;-1.33;69.13
61474;BME280;53694;49.784;30.150;2023-01-30T06:17:13;99404.05;;;-1.46;69.75
61474;BME280;53694;49.784;30.150;2023-01-30T06:18:15;99399.35;;;-1.60;70.31
61474;BME280;53694;49.784;30.150;2023-01-30T06:19:35;99393.50;;;-1.67;70.82
61474;BME280;53694;49.784;30.150;2023-01-30T06:20:46;99390.36;;;-1.74;71.41
61474;BME280;53694;49.784;30.150;2023-01-30T06:21:47;99393.56;;;-1.72;71.70
61474;BME280;53694;49.784;30.150;2023-01-30T06:22:49;99386.78;;;-1.45;71.42
61474;BME280;53694;49.784;30.150;2023-01-30T06:23:55;99393.05;;;-1.07;70.76
61474;BME280;53694;49.784;30.150;2023-01-30T06:25:02;99394.38;;;-0.67;69.20
61474;BME280;53694;49.784;30.150;2023-01-30T06:27:25;99384.61;;;0.16;66.02
61474;BME280;53694;49.784;30.150;2023-01-30T06:28:27;99383.23;;;0.46;64.70
61474;BME280;53694;49.784;30.150;2023-01-30T06:29:49;99389.84;;;0.54;64.19
61474;BME280;53694;49.784;30.150;2023-01-30T06:31:09;99377.83;;;0.46;63.93
61474;BME280;53694;49.784;30.150;2023-01-30T06:32:22;99378.24;;;0.26;64.27
61474;BME280;53694;49.784;30.150;2023-01-30T06:33:28;99386.81;;;0.01;64.82
61474;BME280;53694;49.784;30.150;2023-01-30T06:34:39;99376.15;;;-0.23;65.48
61474;BME280;53694;49.784;30.150;2023-01-30T06:36:02;99379.97;;;-0.43;66.02
61474;BME280;53694;49.784;30.150;2023-01-30T06:37:15;99379.80;;;-0.66;66.69
61474;BME280;53694;49.784;30.150;2023-01-30T06:38:24;99376.37;;;-0.90;67.60
61474;BME280;53694;49.784;30.150;2023-01-30T06:39:41;99372.88;;;-1.10;68.34
61474;BME280;53694;49.784;30.150;2023-01-30T06:40:52;99374.17;;;-1.26;69.04
61474;BME280;53694;49.784;30.150;2023-01-30T06:41:58;99370.56;;;-1.40;69.74
61474;BME280;53694;49.784;30.150;2023-01-30T06:43:11;99373.69;;;-1.52;70.22
61474;BME280;53694;49.784;30.150;2023-01-30T06:44:33;99375.41;;;-1.61;70.76
61474;BME280;53694;49.784;30.150;2023-01-30T06:45:41;99372.55;;;-1.70;71.22
61474;BME280;53694;49.784;30.150;2023-01-30T06:46:43;99377.34;;;-1.67;71.71
61474;BME280;53694;49.784;30.150;2023-01-30T06:47:49;99370.56;;;-1.40;71.47
61474;BME280;53694;49.784;30.150;2023-01-30T06:48:51;99367.98;;;-1.08;70.80
61474;BME280;53694;49.784;30.150;2023-01-30T06:50:16;99358.70;;;-0.64;69.85
61474;BME280;53694;49.784;30.150;2023-01-30T06:51:22;99361.55;;;-0.22;68.77
61474;BME280;53694;49.784;30.150;2023-01-30T06:52:43;99361.83;;;0.36;66.86
61474;BME280;53694;49.784;30.150;2023-01-30T06:53:59;99366.81;;;0.70;65.15
61474;BME280;53694;49.784;30.150;2023-01-30T06:55:21;99355.78;;;0.81;63.81
61474;BME280;53694;49.784;30.150;2023-01-30T06:56:46;99345.98;;;0.71;63.64
61474;BME280;53694;49.784;30.150;2023-01-30T06:58:10;99365.14;;;0.47;63.83
61474;BME280;53694;49.784;30.150;2023-01-30T06:59:12;99348.22;;;0.14;64.41
61474;BME280;53694;49.784;30.150;2023-01-30T07:00:26;99350.97;;;-0.19;65.43
61474;BME280;53694;49.784;30.150;2023-01-30T07:01:43;99347.51;;;-0.38;66.16
61474;BME280;53694;49.784;30.150;2023-01-30T07:02:47;99342.47;;;-0.59;66.92
61474;BME280;53694;49.784;30.150;2023-01-30T07:03:59;99353.05;;;-0.81;67.80
61474;BME280;53694;49.784;30.150;2023-01-30T07:05:11;99347.38;;;-0.98;68.58
61474;BME280;53694;49.784;30.150;2023-01-30T07:06:22;99345.78;;;-1.18;69.24
61474;BME280;53694;49.784;30.150;2023-01-30T07:07:28;99344.61;;;-1.31;70.09
61474;BME280;53694;49.784;30.150;2023-01-30T07:08:51;99343.92;;;-1.42;70.46
61474;BME280;53694;49.784;30.150;2023-01-30T07:09:52;99338.37;;;-1.51;70.97
61474;BME280;53694;49.784;30.150;2023-01-30T07:10:54;99337.44;;;-1.41;71.47
61474;BME280;53694;49.784;30.150;2023-01-30T07:11:55;99330.64;;;-1.14;71.35
61474;BME280;53694;49.784;30.150;2023-01-30T07:13:07;99342.78;;;-0.79;70.44
61474;BME280;53694;49.784;30.150;2023-01-30T07:14:08;99340.52;;;-0.39;69.25
61474;BME280;53694;49.784;30.150;2023-01-30T07:15:11;99340.30;;;0.04;67.46
61474;BME280;53694;49.784;30.150;2023-01-30T07:16:12;99342.81;;;0.41;66.12
61474;BME280;53694;49.784;30.150;2023-01-30T07:17:28;99336.77;;;0.72;64.83
61474;BME280;53694;49.784;30.150;2023-01-30T07:18:44;99339.75;;;0.84;64.31
61474;BME280;53694;49.784;30.150;2023-01-30T07:19:50;99341.98;;;0.82;63.61
61474;BME280;53694;49.784;30.150;2023-01-30T07:20:54;99339.70;;;0.62;63.68
61474;BME280;53694;49.784;30.150;2023-01-30T07:21:56;99336.92;;;0.39;64.11
61474;BME280;53694;49.784;30.150;2023-01-30T07:22:57;99331.41;;;0.17;64.71
61474;BME280;53694;49.784;30.150;2023-01-30T07:24:11;99328.59;;;-0.06;65.34
61474;BME280;53694;49.784;30.150;2023-01-30T07:25:29;99335.14;;;-0.26;66.00
61474;BME280;53694;49.784;30.150;2023-01-30T07:26:38;99339.81;;;-0.45;66.78
61474;BME280;53694;49.784;30.150;2023-01-30T07:27:51;99335.53;;;-0.65;67.47
61474;BME280;53694;49.784;30.150;2023-01-30T07:28:51;99336.38;;;-0.83;68.05
61474;BME280;53694;49.784;30.150;2023-01-30T07:29:52;99337.61;;;-0.94;68.75
61474;BME280;53694;49.784;30.150;2023-01-30T07:31:27;99330.78;;;-1.06;69.36
61474;BME280;53694;49.784;30.150;2023-01-30T07:32:33;99325.82;;;-1.17;69.85
61474;BME280;53694;49.784;30.150;2023-01-30T07:33:40;99330.53;;;-1.28;70.39
61474;BME280;53694;49.784;30.150;2023-01-30T07:34:41;99329.58;;;-1.37;70.86
61474;BME280;53694;49.784;30.150;2023-01-30T07:35:43;99325.94;;;-1.46;71.14
61474;BME280;53694;49.784;30.150;2023-01-30T07:36:55;99328.63;;;-1.46;71.33
61474;BME280;53694;49.784;30.150;2023-01-30T07:37:57;99317.66;;;-1.31;71.13
61474;BME280;53694;49.784;30.150;2023-01-30T07:38:59;99322.53;;;-0.95;70.39
61474;BME280;53694;49.784;30.150;2023-01-30T07:40:01;99313.59;;;-0.58;69.38
61474;BME280;53694;49.784;30.150;2023-01-30T07:41:02;99316.67;;;-0.18;68.39
61474;BME280;53694;49.784;30.150;2023-01-30T07:42:05;99314.81;;;0.23;66.64
61474;BME280;53694;49.784;30.150;2023-01-30T07:43:10;99319.38;;;0.50;65.48
61474;BME280;53694;49.784;30.150;2023-01-30T07:44:13;99314.78;;;0.65;64.42
61474;BME280;53694;49.784;30.150;2023-01-30T07:45:14;99310.77;;;0.62;64.00
61474;BME280;53694;49.784;30.150;2023-01-30T07:46:16;99305.88;;;0.50;63.75
61474;BME280;53694;49.784;30.150;2023-01-30T07:47:17;99303.79;;;0.34;64.29
61474;BME280;53694;49.784;30.150;2023-01-30T07:48:19;99309.63;;;0.13;64.70
61474;BME280;53694;49.784;30.150;2023-01-30T07:49:36;99310.80;;;-0.07;65.24
61474;BME280;53694;49.784;30.150;2023-01-30T07:50:38;99312.58;;;-0.30;65.83
61474;BME280;53694;49.784;30.150;2023-01-30T07:51:40;99313.81;;;-0.55;66.57
61474;BME280;53694;49.784;30.150;2023-01-30T07:52:41;99312.45;;;-0.71;67.34
61474;BME280;53694;49.784;30.150;2023-01-30T07:53:48;99308.89;;;-0.85;67.95
61474;BME280;53694;49.784;30.150;2023-01-30T07:54:49;99303.17;;;-0.97;68.83
61474;BME280;53694;49.784;30.150;2023-01-30T07:55:51;99311.70;;;-1.09;69.33
61474;BME280;53694;49.784;30.150;2023-01-30T07:56:52;99298.08;;;-1.18;69.63
61474;BME280;53694;49.784;30.150;2023-01-30T07:57:54;99299.22;;;-1.24;70.21
61474;BME280;53694;49.784;30.150;2023-01-30T07:58:55;99290.73;;;-1.31;70.49
61474;BME280;53694;49.784;30.150;2023-01-30T07:59:57;99306.94;;;-1.36;70.68
61474;BME280;53694;49.784;30.150;2023-01-30T08:00:59;99300.48;;;-1.35;70.79
61474;BME280;53694;49.784;30.150;2023-01-30T08:02:00;99301.88;;;-1.19;70.64
61474;BME280;53694;49.784;30.150;2023-01-30T08:03:02;99293.59;;;-0.90;70.17
61474;BME280;53694;49.784;30.150;2023-01-30T08:04:03;99291.13;;;-0.54;68.75
61474;BME280;53694;49.784;30.150;2023-01-30T08:05:06;99297.99;;;-0.15;67.75
61474;BME280;53694;49.784;30.150;2023-01-30T08:06:08;99285.41;;;0.22;65.69
61474;BME280;53694;49.784;30.150;2023-01-30T08:07:09;99276.27;;;0.45;65.06
61474;BME280;53694;49.784;30.150;2023-01-30T08:08:11;99278.14;;;0.59;64.37
61474;BME280;53694;49.784;30.150;2023-01-30T08:09:12;99282.55;;;0.55;63.85
61474;BME280;53694;49.784;30.150;2023-01-30T08:10:15;99282.27;;;0.42;63.81
61474;BME280;53694;49.784;30.150;2023-01-30T08:11:16;99283.20;;;0.24;64.21
61474;BME280;53694;49.784;30.150;2023-01-30T12:12:46;98846.49;;;-0.83;77.53
61474;BME280;53694;49.784;30.150;2023-01-30T12:13:50;98837.80;;;-0.80;77.50
61474;BME280;53694;49.784;30.150;2023-01-30T12:15:09;98844.25;;;-0.67;77.18
61474;BME280;53694;49.784;30.150;2023-01-30T12:16:18;98837.13;;;-0.40;76.56
61474;BME280;53694;49.784;30.150;2023-01-30T12:18:09;98843.54;;;0.04;75.40
61474;BME280;53694;49.784;30.150;2023-01-30T12:18:29;98850.73;;;0.57;73.19
61474;BME280;53694;49.784;30.150;2023-01-30T12:21:25;98833.62;;;1.39;69.17